Flight Track Log - Related Links

Times and Time Zones

All times are in EDT time to prevent confusion due to time zone crossing. See the BJS542 flight status page for this flight to view local times or setup timezone preferences in your user account.


Time Position Orientation Groundspeed Altitude Reporting Facility
EDT Latitude Longitude Course Direction KTS MPH feet Rate Location/Type
Wed 10:15:28 AM 27.9833 -82.0167 119° Southeast 158 182 1,000  Level Tampa TRACON
Wed 10:16:52 AM 27.9500 -81.9500 119° Southeast 217 250 4,000 4,106 Climbing Tampa TRACON
Wed 10:19:51 AM 27.8119 -81.7678 131° Southeast 255 293 19,000 3,715 Climbing Miami Center
Wed 10:20:51 AM 27.7494 -81.7042 138° Southeast 294 338 18,800  Descending Miami Center
Wed 10:21:52 AM 27.6828 -81.6381 139° Southeast 335 386 19,000 99 Climbing Miami Center
Wed 10:22:52 AM 27.6000 -81.5550 138° Southeast 357 411 19,000  Level Miami Center
Wed 10:23:51 AM 27.5231 -81.4769 138° Southeast 368 423 19,000 -504 Level Miami Center
Wed 10:24:51 AM 27.4481 -81.4061 140° Southeast 368 423 18,000 -1,650 Descending Miami Center
Wed 10:25:51 AM 27.3856 -81.3428 138° Southeast 348 400 15,700 -1,500 Descending Miami Center
Wed 10:26:51 AM 27.3106 -81.2675 138° Southeast 356 410 15,000 -347 Descending Miami Center
Wed 10:27:52 AM 27.2253 -81.1847 139° Southeast 361 415 15,000 50 Level Miami Center
Wed 10:28:51 AM 27.1503 -81.1097 138° Southeast 366 421 15,100  Climbing Miami Center
Wed 10:29:52 AM 27.0711 -81.0322 139° Southeast 372 428 15,000 -397 Descending Miami Center
Wed 10:30:52 AM 27.0042 -80.9667 139° Southeast 372 428 14,300 -1,500 Descending Miami Center
Wed 10:31:52 AM 26.9189 -80.8822 139° Southeast 372 428 12,000 -1,950 Descending Miami Center
Wed 10:32:52 AM 26.8517 -80.8172 139° Southeast 351 404 10,400 -1,513 Descending Miami Center
Wed 10:33:51 AM 26.7906 -80.7592 140° Southeast 306 352 9,000 -1,300 Descending Miami Center
Wed 10:34:52 AM 26.7272 -80.7106 146° Southeast 279 321 7,800 -1,289 Descending Miami Center
Wed 10:35:52 AM 26.6719 -80.6692 146° Southeast 269 310 6,400 -1,613 Descending Miami Center
Wed 10:36:51 AM 26.6278 -80.5933 123° Southeast 259 298 4,600 -1,650 Descending Miami Center
Wed 10:37:52 AM 26.5942 -80.5272 120° Southeast 266 306 3,100 -750 Descending Miami Center
Wed 10:38:51 AM 26.5583 -80.4567 120° Southeast 257 296 3,100  Level Miami Center
Wed 10:39:15 AM 26.5422 -80.4328 127° Southeast 245 282 3,100  Level Miami Center
Wed 10:39:51 AM 26.5242 -80.3953 118° Southeast 257 296 3,100 -179 Level Miami Center
Wed 10:40:22 AM 26.5003 -80.3503 121° Southeast 265 305 2,900 -1,000 Descending Miami Center
Wed 10:40:51 AM 26.4844 -80.3150 117° Southeast 257 296 2,100 -787 Descending Miami Center
Wed 10:41:23 AM 26.4622 -80.2797 125° Southeast 263 303 2,100  Level Miami Center
Wed 10:42:24 AM 26.4261 -80.2136 121° Southeast 250 288 2,100 -259 Level Miami Center
Wed 10:43:19 AM 26.3831 -80.1775 143° Southeast 197 227 1,600 -672 Descending Miami Center
Wed 10:44:20 AM 26.3547 -80.1419 132° Southeast 147 169 800 -787 Descending Miami Center
Wed 10:46:00 AM 26.3667 -80.1000 180° South  Level FlightAware Approximate

Login

Don't have an account? Register now (free) for customized features, flight alerts, and more!